Log in

NASDAQ:GLPIGaming and Leisure Properties Institutional Ownership

$39.70
+1.45 (+3.79 %)
(As of 06/5/2020 04:00 PM ET)
Add
Compare
Today's Range
$37.32
Now: $39.70
$39.71
50-Day Range
$24.82
MA: $29.37
$39.70
52-Week Range
$12.78
Now: $39.70
$49.99
Volume2.86 million shs
Average Volume2.92 million shs
Market Capitalization$8.54 billion
P/E Ratio21.69
Dividend Yield1.20%
Beta0.98

Institutional Ownership

Institutional Ownership Changes (13F Filings) for Gaming and Leisure Properties (NASDAQ:GLPI)

Institutional Ownership Percentage: 86.95%

Institutional Buying and Selling by Quarter


Gaming and Leisure Properties (NASDAQ GLPI) Institutional Buying and Selling

Reporting DateHedge FundShares HeldMarket Value% of PortfolioQuarterly Change in SharesOwnership in Company
6/2/2020Guggenheim Capital LLC156,099$4.33M0.0%-5.8%0.073%
5/28/2020Optimal Asset Management Inc.38,638$1.07M0.1%+123.8%0.018%
5/26/2020Morgan Stanley5,691,449$157.71M0.0%+65.1%2.646%
5/21/2020HighTower Advisors LLC8,804$0.25M0.0%+8.9%0.004%
5/20/2020Eii Capital Management Inc.53,187$1.47M1.0%+2.1%0.025%
5/18/2020Integrated Wealth Concepts LLC9,792$0.27M0.0%+20.3%0.005%
5/18/2020EP Wealth Advisors LLC54,987$1.52M0.1%-0.9%0.026%
5/18/2020Voloridge Investment Management LLC38,334$1.06M0.0%N/A0.018%
5/18/2020Mercer Global Advisors Inc. ADV49,813$1.38M0.0%+74.3%0.023%
5/18/2020Advisor Group Holdings Inc.42,802$1.20M0.0%N/A0.020%
5/15/2020Capital Research Global Investors425,000$11.78M0.0%-92.6%0.198%
5/15/2020Caxton Associates LP23,254$0.64M0.1%-10.0%0.011%
5/15/2020Eminence Capital LP1,051,211$29.13M0.3%N/A0.489%
5/15/2020AQR Capital Management LLC20,736$0.58M0.0%-40.7%0.010%
5/15/2020Capital World Investors13,628,220$377.64M0.1%-3.9%6.335%
5/15/2020Capital International Investors4,518,177$125.20M0.1%N/A2.100%
5/15/2020Squarepoint Ops LLC9,146$0.25M0.0%N/A0.004%
5/15/2020Meeder Asset Management Inc.31,027$0.86M0.1%+6.2%0.014%
5/15/2020Paloma Partners Management Co13,973$0.39M0.0%N/A0.006%
5/15/2020Par Capital Management Inc.508,600$14.09M0.6%N/A0.236%
5/15/2020AXA68,079$1.89M0.0%-11.9%0.032%
5/15/2020Invesco Ltd.1,302,704$36.10M0.0%-22.9%0.606%
5/15/2020Barings LLC22,000$0.61M0.0%-7.2%0.010%
5/15/2020Advent Capital Management DE100,000$2.77M0.1%N/A0.046%
5/15/2020Tudor Investment Corp Et Al87,278$2.42M0.2%N/A0.041%
5/15/2020Schroder Investment Management Group73,408$1.89M0.0%-10.8%0.034%
5/15/2020Morgan Stanley5,691,449$157.71M0.0%+65.1%2.646%
5/15/2020APG Asset Management N.V.517,100$14.33M0.0%N/A0.240%
5/15/2020United Capital Financial Advisers LLC31,848$0.88M0.0%-9.3%0.015%
5/15/2020Two Sigma Investments LP374,416$10.38M0.1%-69.4%0.174%
5/15/2020Two Sigma Advisers LP1,177,647$32.63M0.1%+30.5%0.547%
5/15/2020Cohen & Steers Inc.8,558$0.24M0.0%-73.4%0.004%
5/15/2020Cipher Capital LP32,090$0.89M0.3%N/A0.015%
5/15/2020Vista Investment Management12,505$0.35M0.4%-14.3%0.006%
5/15/2020Driehaus Capital Management LLC67,205$1.86M0.1%N/A0.031%
5/15/2020Thrivent Financial for Lutherans158,407$4.39M0.0%-13.7%0.074%
5/15/2020Rafferty Asset Management LLC8,421$0.23M0.0%-78.3%0.004%
5/14/2020Virtus ETF Advisers LLC38,123$1.06M0.4%-58.9%0.018%
5/14/2020Gabelli Funds LLC60,000$1.66M0.0%-14.3%0.028%
5/14/2020Employees Retirement System of Texas176,742$4.90M0.1%-39.8%0.082%
5/14/2020Wells Fargo & Company MN736,018$20.40M0.0%-34.8%0.342%
5/14/2020Mackenzie Financial Corp176,300$4.89M0.0%-54.4%0.082%
5/14/2020Athanor Capital LP11,789$0.33M0.0%N/A0.005%
5/14/2020III Capital Management48,000$1.33M2.3%N/A0.022%
5/14/2020Geode Capital Management LLC3,356,076$92.98M0.0%+6.4%1.560%
5/14/2020Janus Henderson Group PLC101,466$2.81M0.0%-4.2%0.047%
5/14/2020Wellington Management Group LLP3,555,903$98.53M0.0%+7.7%1.653%
5/14/2020Nomura Asset Management Co. Ltd.146,340$4.06M0.0%-25.5%0.068%
5/14/2020Legal & General Group Plc1,086,085$30.17M0.0%+10.8%0.505%
5/14/2020Aviva PLC34,792$0.96M0.0%-37.4%0.016%
5/14/2020Deutsche Bank AG1,907,361$52.85M0.0%+1,076.1%0.887%
5/14/2020Baird Financial Group Inc.100,922$2.80M0.0%+533.5%0.047%
5/14/2020Alliancebernstein L.P.1,017,473$28.19M0.0%+4.9%0.473%
5/14/2020M&T Bank Corp21,421$0.59M0.0%-17.2%0.010%
5/14/2020AJO LP1,394,080$38.63M0.3%-45.4%0.648%
5/14/2020Nomura Holdings Inc.9,000$0.25M0.0%-25.0%0.004%
5/14/2020Asset Management One Co. Ltd.445,539$12.35M0.1%-10.6%0.207%
5/14/2020Nuveen Asset Management LLC3,766,912$104.38M0.1%+17.7%1.751%
5/14/2020Banco de Sabadell S.A55,169$1.49M0.2%-3.6%0.026%
5/13/2020AlphaCrest Capital Management LLC28,146$0.78M0.1%+65.7%0.013%
5/13/2020Prescott Group Capital Management L.L.C.33,000$0.91M0.5%N/A0.015%
5/13/2020Parametric Portfolio Associates LLC767,306$21.26M0.0%-7.7%0.357%
5/13/2020Treasurer of the State of North Carolina83,528$2.32M0.0%+71.1%0.039%
5/13/2020Wolverine Asset Management LLC54,698$1.52M0.0%N/A0.025%
5/13/2020BNP Paribas Arbitrage SA482,029$13.36M0.0%+148.8%0.224%
5/13/2020Horizon Kinetics Asset Management LLC8,903$0.25M0.0%+31.7%0.004%
5/13/2020Penn Capital Management Co. Inc.159,570$4.43M0.7%+601.3%0.074%
5/13/2020Federated Hermes Inc.97,790$2.71M0.0%+31.9%0.045%
5/13/2020Pinnacle Associates Ltd.7,347$0.20M0.0%-5.8%0.003%
5/13/2020Pictet Asset Management Ltd.56,700$1.57M0.0%+31.6%0.026%
5/13/2020Toronto Dominion Bank54,278$1.50M0.0%N/A0.025%
5/13/2020Franklin Resources Inc.141,798$3.93M0.0%+12.8%0.066%
5/13/2020Ninety One SA PTY Ltd40,235$1.12M0.5%-15.8%0.019%
5/13/2020Dynamic Technology Lab Private Ltd10,517$0.29M0.1%+20.1%0.005%
5/13/2020Healthcare of Ontario Pension Plan Trust Fund172,400$4.78M0.1%+659.5%0.080%
5/13/20201060 Capital LLC50,000$1.39M13.9%N/A0.023%
5/13/2020US Bancorp DE22,402$0.62M0.0%+31.3%0.010%
5/12/2020Van ECK Associates Corp33,895$0.94M0.0%-54.5%0.016%
5/12/2020Sowell Financial Services LLC1,622$45K0.0%+104.3%0.001%
5/12/2020Principal Financial Group Inc.26,081$0.72M0.0%+26.5%0.012%
5/12/2020Victory Capital Management Inc.176,457$4.89M0.0%+171.0%0.082%
5/12/2020Altshuler Shaham Ltd3,714$0.10M0.0%-35.6%0.002%
5/12/2020Quinn Opportunity Partners LLC35,883$0.99M0.2%N/A0.017%
5/12/2020JPMorgan Chase & Co.920,395$25.50M0.0%+19.3%0.428%
5/12/2020California Public Employees Retirement System460,005$12.75M0.0%-5.1%0.214%
5/12/2020Virginia Retirement Systems ET AL215,000$5.96M0.1%-23.6%0.100%
5/11/2020Commonwealth Equity Services LLC14,420$0.40M0.0%+10.7%0.007%
5/11/2020DC Investments Management LLC10,311$0.29M0.2%+47.7%0.005%
5/11/2020Acadian Asset Management LLC91,612$2.54M0.0%-11.8%0.043%
5/11/2020State Street Corp4,892,581$135.57M0.0%+7.0%2.274%
5/11/2020WINTON GROUP Ltd160,275$4.44M0.1%+24.6%0.075%
5/11/2020Martingale Asset Management L P746,117$20.68M0.3%+15.4%0.347%
5/11/2020BI Asset Management Fondsmaeglerselskab A S72,509$2.01M0.1%N/A0.034%
5/11/2020Mitsubishi UFJ Kokusai Asset Management Co. Ltd.52,394$1.45M0.0%+20.9%0.024%
5/8/2020AGF Investments Inc.8,632$0.24M0.0%N/A0.004%
5/8/2020Teachers Insurance & Annuity Association of America219,462$6.08M0.8%+21.8%0.102%
5/8/2020ETRADE Capital Management LLC28,970$0.80M0.0%-8.4%0.013%
5/8/2020Swiss National Bank395,599$10.96M0.0%+1.3%0.184%
5/8/2020Aigen Investment Management LP13,088$0.36M0.0%N/A0.006%
5/8/2020Cambridge Investment Research Advisors Inc.14,950$0.41M0.0%+14.8%0.007%
(Data available from 1/1/2016 forward)
This page was last updated on 6/7/2020 by MarketBeat.com Staff

Enter your email address below to receive a concise daily summary of analysts' upgrades, downgrades and new coverage with MarketBeat.com's FREE daily email newsletter.